Time;durP1;ratioP1;P1;durP2;ratioP2;P2;SDS_P1;SDS_P2;PMS_P1;PMS_P2;Temp;Humidity;BMP_temperature;BMP_pressure;BME280_temperature;BME280_humidity;BME280_pressure;Samples;Min_cycle;Max_cycle;Signal;HPM_P1;HPM_P2
2022/06/15 00:10:43;;;;;;;10.30;4.95;;;11.00;99.90;;;;;;6355989;22;20049;31
2022/06/15 00:38:13;;;;;;;10.55;4.82;;;10.80;99.90;;;;;;6276261;22;20031;-86
2022/06/15 01:08:49;;;;;;;10.75;5.15;;;10.30;99.90;;;;;;6309929;22;20046;-85
2022/06/15 01:33:55;;;;;;;;;;;;;;;;;;;;;
2022/06/15 02:02:46;;;;;;;11.88;6.20;;;10.20;99.90;;;;;;6274393;22;20099;-86
2022/06/15 02:46:36;;;;;;;15.40;7.57;;;9.90;99.90;;;;;;6368672;22;20017;-86
2022/06/15 02:56:47;;;;;;;15.85;8.55;;;9.90;99.90;;;;;;6369321;22;20075;-86
2022/06/15 02:59:45;;;;;;;14.82;8.43;;;9.90;99.90;;;;;;6313744;22;20045;-86
2022/06/15 03:02:14;;;;;;;16.13;8.80;;;9.90;99.90;;;;;;6311909;22;20327;-85
2022/06/15 03:04:58;;;;;;;19.13;9.55;;;9.80;99.90;;;;;;6339170;22;20018;-86
2022/06/15 03:33:33;;;;;;;19.23;10.45;;;9.90;99.90;;;;;;6338770;22;20063;-86
2022/06/15 05:21:21;;;;;;;15.73;8.70;;;11.70;99.90;;;;;;6369682;22;20017;-86
2022/06/15 05:24:40;;;;;;;16.02;9.35;;;13.20;99.90;;;;;;6340499;22;20010;-86
2022/06/15 09:44:42;;;;;;;6.95;2.40;;;22.00;98.80;;;;;;6281570;22;20054;-91
2022/06/15 09:56:01;;;;;;;;;;;;;;;;;;;;;
2022/06/15 12:08:06;;;;;;;7.75;2.55;;;25.50;89.60;;;;;;6287419;22;20020;-95
2022/06/15 14:26:52;;;;;;;8.10;2.80;;;26.70;81.30;;;;;;6216136;23;20016;-86
2022/06/15 14:30:07;;;;;;;8.77;2.90;;;26.50;81.40;;;;;;6246485;22;20020;-87
2022/06/15 14:43:42;;;;;;;7.22;2.33;;;27.10;81.20;;;;;;6245893;23;20458;-85
2022/06/15 16:13:36;;;;;;;8.20;3.10;;;24.90;84.70;;;;;;6244180;23;20004;-92
2022/06/15 16:16:56;;;;;;;9.23;3.08;;;24.90;84.90;;;;;;6158634;23;20139;-94
2022/06/15 16:27:46;;;;;;;9.82;4.50;;;25.40;84.00;;;;;;6065483;23;20022;-93
2022/06/15 16:30:37;;;;;;;8.38;3.33;;;25.60;84.70;;;;;;6040177;23;20023;-89
2022/06/15 16:33:41;;;;;;;9.43;3.45;;;25.80;84.40;;;;;;6040990;23;20027;-91
2022/06/15 16:36:21;;;;;;;8.52;3.40;;;25.60;84.00;;;;;;6008064;23;20027;-90
2022/06/15 16:38:56;;;;;;;8.90;3.33;;;25.80;84.10;;;;;;5983550;23;20030;-90
2022/06/15 16:41:25;;;;;;;11.13;3.67;;;26.10;83.10;;;;;;5984253;23;20024;-90
2022/06/15 16:44:09;;;;;;;8.80;3.42;;;26.00;83.00;;;;;;5983983;23;20020;-89
2022/06/15 16:46:53;;;;;;;8.57;2.90;;;26.00;83.10;;;;;;5984237;23;20026;-91
2022/06/15 16:49:18;;;;;;;9.00;4.00;;;26.20;83.30;;;;;;5984485;23;20060;-90
2022/06/15 16:51:50;;;;;;;9.20;4.10;;;26.30;83.40;;;;;;5983388;23;20083;-91
2022/06/15 16:54:19;;;;;;;8.80;3.90;;;26.40;82.80;;;;;;6034134;23;20465;-92
2022/06/15 16:57:00;;;;;;;12.90;7.22;;;26.30;82.50;;;;;;6045771;23;20313;-90
2022/06/15 17:03:14;;;;;;;11.98;5.72;;;26.10;80.40;;;;;;6273719;22;20149;-91
2022/06/15 17:06:08;;;;;;;11.10;4.80;;;25.80;81.50;;;;;;6266404;22;20027;-91
2022/06/15 17:08:42;;;;;;;;;;;26.00;81.90;;;;;;6248766;22;20027;-92
2022/06/15 17:11:10;;;;;;;7.85;3.08;;;25.90;82.10;;;;;;6248268;22;19919;-91
2022/06/15 17:17:11;;;;;;;8.82;3.95;;;25.70;81.60;;;;;;6246252;22;20479;-89
2022/06/15 17:22:52;;;;;;;8.98;4.30;;;25.50;81.60;;;;;;6123517;23;20033;-89
2022/06/15 17:25:23;;;;;;;14.00;8.50;;;25.40;81.20;;;;;;6100424;23;20049;-92
2022/06/15 17:28:17;;;;;;;11.00;5.95;;;25.30;81.20;;;;;;6082820;23;20013;-89
2022/06/15 17:34:16;;;;;;;8.55;3.13;;;25.50;81.40;;;;;;6098463;23;20053;-90
2022/06/15 17:50:06;;;;;;;10.63;3.17;;;25.10;80.60;;;;;;6246234;23;20103;-89
2022/06/15 17:52:54;;;;;;;8.00;2.80;;;24.50;79.90;;;;;;6223760;23;20460;-90
2022/06/15 17:55:23;;;;;;;8.80;2.95;;;24.40;80.60;;;;;;6235393;22;20016;-88
2022/06/15 18:00:31;;;;;;;8.70;3.00;;;24.40;80.30;;;;;;6277750;22;20023;-89
2022/06/15 18:07:54;;;;;;;9.23;2.80;;;24.40;79.40;;;;;;6216959;23;20032;-91
2022/06/15 18:14:04;;;;;;;10.00;3.17;;;24.20;79.70;;;;;;6217396;23;20071;-89
2022/06/15 18:17:15;;;;;;;9.90;3.20;;;24.20;79.80;;;;;;6216151;23;20017;-89
2022/06/15 18:30:33;;;;;;;7.18;2.90;;;23.90;80.30;;;;;;6247943;22;20046;-89
2022/06/15 18:33:17;;;;;;;7.63;2.80;;;23.50;80.60;;;;;;6234182;23;20016;-89
2022/06/15 18:35:45;;;;;;;8.35;3.05;;;22.50;82.20;;;;;;6247337;23;20040;-89
2022/06/15 18:38:11;;;;;;;8.55;3.05;;;21.90;82.50;;;;;;6261160;22;20016;-89
2022/06/15 18:40:40;;;;;;;7.65;3.35;;;21.40;83.40;;;;;;6277801;22;20019;-89
2022/06/15 18:49:15;;;;;;;8.60;3.42;;;21.10;84.20;;;;;;6099449;23;20052;-89
2022/06/15 18:51:59;;;;;;;8.88;3.30;;;20.60;85.00;;;;;;6102445;23;20069;-88
2022/06/15 18:55:03;;;;;;;9.27;3.40;;;20.60;85.80;;;;;;6099805;23;20014;-88
2022/06/15 18:57:47;;;;;;;8.73;3.20;;;20.00;86.10;;;;;;6124788;23;20025;-89
2022/06/15 19:00:36;;;;;;;9.50;3.30;;;19.70;87.80;;;;;;6174063;22;20174;-88
2022/06/15 19:03:14;;;;;;;10.55;3.55;;;19.70;87.80;;;;;;6249032;22;20020;-89
2022/06/15 19:06:14;;;;;;;10.10;3.28;;;19.50;88.30;;;;;;6248287;22;20029;-89
2022/06/15 19:09:06;;;;;;;7.75;2.90;;;19.40;88.20;;;;;;6250399;22;20451;-90
2022/06/15 19:11:59;;;;;;;8.90;3.65;;;19.20;89.90;;;;;;6124408;23;20021;-89
2022/06/15 19:14:25;;;;;;;9.05;3.03;;;19.00;89.90;;;;;;6100463;23;20383;-88
2022/06/15 19:17:09;;;;;;;10.18;3.65;;;19.30;89.20;;;;;;6104870;23;20033;-90
2022/06/15 19:19:53;;;;;;;9.23;3.63;;;19.10;90.40;;;;;;6099336;23;20014;-88
2022/06/15 19:22:40;;;;;;;;;;;19.20;91.10;;;;;;6100857;23;20022;-90
2022/06/15 19:25:12;;;;;;;8.80;3.40;;;18.40;90.60;;;;;;6099356;23;19924;-89
2022/06/15 19:27:47;;;;;;;9.38;3.20;;;18.30;91.00;;;;;;6098437;23;20014;-89
2022/06/15 19:30:48;;;;;;;7.90;3.25;;;18.20;91.60;;;;;;6099752;23;20033;-90
2022/06/15 19:33:29;;;;;;;9.55;3.50;;;19.00;92.20;;;;;;6123345;23;20018;-89
2022/06/15 19:35:54;;;;;;;7.97;3.20;;;18.00;92.40;;;;;;6123698;23;20443;-89
2022/06/15 19:38:38;;;;;;;9.20;3.60;;;18.50;91.90;;;;;;6098740;23;20051;-88
2022/06/15 19:41:05;;;;;;;9.55;3.50;;;17.70;92.90;;;;;;6131368;22;20016;-89
2022/06/15 19:43:51;;;;;;;8.90;3.60;;;17.70;92.50;;;;;;6276571;22;20065;-88
2022/06/15 19:46:23;;;;;;;8.80;3.55;;;17.70;93.80;;;;;;6250151;22;20021;-88
2022/06/15 19:49:07;;;;;;;10.88;3.80;;;17.30;93.60;;;;;;6275283;22;20452;-88
2022/06/15 19:51:48;;;;;;;9.15;3.40;;;17.40;94.40;;;;;;6248341;22;20020;-89
2022/06/15 19:57:43;;;;;;;9.73;3.57;;;17.20;94.90;;;;;;6248632;22;20028;-89
2022/06/15 20:00:35;;;;;;;10.52;3.63;;;17.10;95.70;;;;;;6245555;23;20024;-89
2022/06/15 20:03:07;;;;;;;10.02;4.05;;;17.00;95.60;;;;;;6243477;23;20448;-88
2022/06/15 20:05:47;;;;;;;9.52;3.45;;;16.90;95.50;;;;;;6244748;23;20101;-89
2022/06/15 20:08:16;;;;;;;9.27;3.47;;;16.90;96.40;;;;;;6247894;23;20079;-91
2022/06/15 20:11:19;;;;;;;10.43;3.63;;;16.80;96.00;;;;;;6218357;23;20012;-93
2022/06/15 20:17:13;;;;;;;12.00;3.85;;;16.80;97.70;;;;;;6243743;23;20059;-89
2022/06/15 20:20:01;;;;;;;8.50;3.45;;;16.60;97.30;;;;;;6246355;23;20023;-88
2022/06/15 20:26:13;;;;;;;9.27;3.53;;;16.60;98.20;;;;;;6245300;23;20099;-88
2022/06/15 20:32:42;;;;;;;10.93;3.60;;;16.40;99.20;;;;;;6245636;23;20066;-91
2022/06/15 20:35:17;;;;;;;9.95;3.42;;;16.30;99.00;;;;;;6245244;23;20344;-91
2022/06/15 20:38:39;;;;;;;10.05;3.60;;;16.20;99.30;;;;;;6215327;23;20515;-91
2022/06/15 20:48:30;;;;;;;8.38;3.58;;;15.90;99.90;;;;;;6011948;23;20027;-90
2022/06/15 20:55:25;;;;;;;9.35;3.80;;;15.80;99.90;;;;;;6283257;22;20015;-90
2022/06/15 20:58:09;;;;;;;10.07;4.00;;;15.60;99.90;;;;;;6255614;22;20020;-91
2022/06/15 21:00:50;;;;;;;8.55;3.53;;;16.50;99.90;;;;;;6276289;22;20039;-91
2022/06/15 21:03:28;;;;;;;9.90;4.15;;;16.20;99.90;;;;;;6276134;22;20020;-91
2022/06/15 21:06:03;;;;;;;12.13;3.95;;;16.10;99.90;;;;;;6274763;22;20020;-91
2022/06/15 21:08:48;;;;;;;10.65;4.20;;;15.60;99.90;;;;;;6275949;22;20054;-91
2022/06/15 21:20:42;;;;;;;12.05;4.15;;;15.30;99.90;;;;;;6248114;22;19998;-90
2022/06/15 21:23:39;;;;;;;9.88;3.97;;;15.40;99.90;;;;;;6249846;22;20428;-91
2022/06/15 21:26:11;;;;;;;9.90;4.07;;;15.20;99.90;;;;;;6247502;22;20522;-89
2022/06/15 21:29:30;;;;;;;9.07;4.20;;;15.80;99.90;;;;;;6276363;22;20065;-91
2022/06/15 21:35:28;;;;;;;8.45;3.90;;;16.10;99.90;;;;;;6246752;22;20011;-90
2022/06/15 21:38:06;;;;;;;9.55;3.92;;;15.80;99.90;;;;;;6223873;23;20029;-91
2022/06/15 21:41:00;;;;;;;8.95;4.07;;;15.50;99.90;;;;;;6218650;23;20027;-90
2022/06/15 21:43:41;;;;;;;10.45;4.35;;;15.20;99.90;;;;;;6154356;23;20473;-89
2022/06/15 21:46:30;;;;;;;8.50;3.67;;;14.90;99.90;;;;;;6127188;23;20018;-92
2022/06/15 21:52:00;;;;;;;10.57;4.00;;;14.80;99.90;;;;;;6084554;23;20473;-87
2022/06/15 21:54:26;;;;;;;10.00;4.10;;;14.90;99.90;;;;;;6093519;23;20018;-91
2022/06/15 21:56:58;;;;;;;11.90;4.20;;;15.60;99.90;;;;;;6093358;23;20081;-90
2022/06/15 21:59:42;;;;;;;10.73;4.20;;;14.90;99.90;;;;;;6070079;23;20022;-91
2022/06/15 22:02:13;;;;;;;9.30;4.03;;;14.60;99.90;;;;;;6068632;23;20026;-91
2022/06/15 22:12:53;;;;;;;9.70;4.20;;;14.30;99.90;;;;;;6249943;22;20020;-91
2022/06/15 22:15:31;;;;;;;10.48;4.05;;;14.70;99.90;;;;;;6249698;22;20451;-90
2022/06/15 22:18:03;;;;;;;9.93;3.90;;;15.60;99.90;;;;;;6249598;22;20015;-91
2022/06/15 22:20:57;;;;;;;11.07;4.22;;;14.40;99.90;;;;;;6251157;22;20045;-90
2022/06/15 22:23:23;;;;;;;9.45;3.97;;;15.20;99.90;;;;;;6249427;22;20016;-90
2022/06/15 22:26:08;;;;;;;11.32;4.35;;;14.40;99.90;;;;;;6249650;22;20020;-90
2022/06/15 22:28:36;;;;;;;11.43;4.20;;;14.40;99.90;;;;;;6281940;22;20018;-91
2022/06/15 22:31:17;;;;;;;9.88;4.20;;;14.40;99.90;;;;;;6250253;22;20016;-92
2022/06/15 22:33:43;;;;;;;13.52;4.57;;;14.60;99.90;;;;;;6249297;22;20022;-89
2022/06/15 22:39:16;;;;;;;10.38;4.30;;;14.20;99.90;;;;;;6276470;22;20023;-90
2022/06/15 22:41:58;;;;;;;10.98;4.50;;;15.10;99.90;;;;;;6277335;22;20027;-90
2022/06/15 22:44:39;;;;;;;10.85;4.45;;;15.10;99.90;;;;;;6276594;22;20016;-91
2022/06/15 22:47:05;;;;;;;9.73;4.25;;;14.60;99.90;;;;;;6250107;22;20008;-91
2022/06/15 22:52:45;;;;;;;10.45;4.45;;;14.60;99.90;;;;;;6277458;22;20364;-92
2022/06/15 22:55:29;;;;;;;10.98;4.50;;;14.30;99.90;;;;;;6277086;22;20077;-91
2022/06/15 22:58:07;;;;;;;11.43;4.40;;;13.90;99.90;;;;;;6276052;22;20043;-91
2022/06/15 23:08:20;;;;;;;12.35;4.30;;;13.60;99.90;;;;;;6248978;22;20016;-90
2022/06/15 23:10:46;;;;;;;10.15;4.50;;;14.40;99.90;;;;;;6276134;22;20011;-90
2022/06/15 23:13:12;;;;;;;12.13;4.40;;;14.40;99.90;;;;;;6249778;22;20027;-91
2022/06/15 23:15:38;;;;;;;10.55;4.25;;;13.50;99.90;;;;;;6277777;22;20056;-91
2022/06/15 23:18:04;;;;;;;12.15;4.78;;;13.50;99.90;;;;;;6276034;22;20051;-91
2022/06/15 23:20:31;;;;;;;11.50;4.32;;;13.50;99.90;;;;;;6277334;22;20012;-90
2022/06/15 23:22:57;;;;;;;9.40;4.25;;;13.50;99.90;;;;;;6276923;22;20016;-90
2022/06/15 23:25:23;;;;;;;12.52;4.75;;;13.40;99.90;;;;;;6277040;22;20016;-90
2022/06/15 23:28:42;;;;;;;14.23;4.70;;;13.40;99.90;;;;;;6250563;22;20341;-90
2022/06/15 23:32:06;;;;;;;11.95;4.63;;;13.30;99.90;;;;;;6251790;22;20027;-91
2022/06/15 23:34:35;;;;;;;11.18;4.43;;;13.20;99.90;;;;;;6249463;22;20022;-90
2022/06/15 23:37:10;;;;;;;11.30;4.75;;;13.30;99.90;;;;;;6252905;22;20023;-91
2022/06/15 23:39:36;;;;;;;9.88;4.50;;;13.80;99.90;;;;;;6248983;22;20016;-91
2022/06/15 23:42:36;;;;;;;10.30;4.72;;;13.30;99.90;;;;;;6276127;22;20026;-90
2022/06/15 23:48:04;;;;;;;12.05;4.70;;;13.80;99.90;;;;;;6247710;22;20028;-90
2022/06/15 23:54:05;;;;;;;10.55;4.50;;;13.80;99.90;;;;;;6289496;22;20022;-91
2022/06/15 23:57:01;;;;;;;13.18;5.22;;;13.20;99.90;;;;;;6256749;22;20399;-91
2022/06/15 23:59:51;;;;;;;13.73;5.53;;;14.30;99.90;;;;;;6280527;22;20057;-92
